Time;durP1;ratioP1;P1;durP2;ratioP2;P2;SDS_P1;SDS_P2;PMS_P1;PMS_P2;Temp;Humidity;BMP_temperature;BMP_pressure;BME280_temperature;BME280_humidity;BME280_pressure;Samples;Min_cycle;Max_cycle;Signal;HPM_P1;HPM_P2
2022/04/05 00:00:32;;;;;;;9.20;6.63;;;4.80;99.90;;;;;;5049390;28;20417;-71
2022/04/05 00:02:58;;;;;;;10.23;6.20;;;4.70;99.90;;;;;;5049138;28;20694;-72
2022/04/05 00:05:24;;;;;;;6.57;5.70;;;4.70;99.90;;;;;;5048729;28;20721;-72
2022/04/05 00:07:50;;;;;;;8.17;6.37;;;4.70;99.90;;;;;;5049037;28;20187;-72
2022/04/05 00:10:16;;;;;;;6.50;5.70;;;4.70;99.90;;;;;;5047324;28;20441;-72
2022/04/05 00:12:42;;;;;;;7.03;5.47;;;4.70;99.90;;;;;;5048816;28;20555;-72
2022/04/05 00:15:11;;;;;;;8.23;6.00;;;4.70;99.90;;;;;;5048812;28;20496;-72
2022/04/05 00:17:37;;;;;;;7.05;5.57;;;4.70;99.90;;;;;;5048721;28;20179;-71
2022/04/05 00:20:04;;;;;;;6.67;5.20;;;4.70;99.90;;;;;;5049058;28;20187;-74
2022/04/05 00:22:30;;;;;;;8.53;6.23;;;4.70;99.90;;;;;;5048847;28;20447;-74
2022/04/05 00:24:56;;;;;;;9.80;6.07;;;4.70;99.90;;;;;;5048868;28;20981;-73
2022/04/05 00:27:21;;;;;;;9.00;5.63;;;4.80;99.90;;;;;;5047261;28;20428;-74
2022/04/05 00:29:47;;;;;;;7.60;5.90;;;4.80;99.90;;;;;;5049081;28;20418;-74
2022/04/05 00:32:13;;;;;;;12.00;6.50;;;4.70;99.90;;;;;;5047311;28;20212;-74
2022/04/05 00:34:39;;;;;;;8.80;5.50;;;4.80;99.90;;;;;;5048810;28;20296;-74
2022/04/05 00:37:05;;;;;;;7.90;7.00;;;4.70;99.90;;;;;;5048724;28;20181;-74
2022/04/05 00:39:30;;;;;;;8.50;5.90;;;4.80;99.90;;;;;;5049028;28;20419;-72
2022/04/05 00:41:56;;;;;;;11.30;5.43;;;4.80;99.90;;;;;;5048611;28;20607;-73
2022/04/05 00:44:23;;;;;;;6.00;5.20;;;4.80;99.90;;;;;;5048852;28;20220;-72
2022/04/05 00:46:50;;;;;;;9.17;6.90;;;4.80;99.90;;;;;;5048628;28;20430;-72
2022/04/05 00:49:23;;;;;;;9.40;5.68;;;4.80;99.90;;;;;;5048581;28;20513;-72
2022/04/05 00:51:48;;;;;;;9.52;6.07;;;4.80;99.90;;;;;;5048616;28;20234;-72
2022/04/05 00:54:16;;;;;;;5.87;5.27;;;4.70;99.90;;;;;;5047369;28;20211;-72
2022/04/05 00:56:43;;;;;;;7.93;5.95;;;4.80;99.90;;;;;;5047243;28;20202;-72
2022/04/05 00:59:10;;;;;;;7.63;5.85;;;4.80;99.90;;;;;;5048720;28;20182;-72
2022/04/05 01:01:37;;;;;;;6.78;5.53;;;4.80;99.90;;;;;;5048918;28;20966;-72
2022/04/05 01:04:03;;;;;;;5.97;4.88;;;4.80;99.90;;;;;;5048885;28;20185;-73
2022/04/05 01:06:38;;;;;;;6.30;5.40;;;4.80;99.90;;;;;;5048786;28;20734;-73
2022/04/05 01:09:03;;;;;;;7.13;5.20;;;4.80;99.90;;;;;;5048935;28;20196;-73
2022/04/05 01:11:32;;;;;;;9.60;6.30;;;4.90;99.90;;;;;;5051400;28;20456;-72
2022/04/05 01:13:57;;;;;;;6.50;5.50;;;4.90;99.90;;;;;;5052864;28;20203;-73
2022/04/05 01:16:23;;;;;;;13.93;5.83;;;4.90;99.90;;;;;;5051297;28;20998;-73
2022/04/05 01:18:49;;;;;;;8.00;6.20;;;5.00;99.90;;;;;;5052615;28;20184;-72
2022/04/05 01:21:15;;;;;;;6.83;6.10;;;5.10;99.90;;;;;;5051055;28;20219;-73
2022/04/05 01:24:05;;;;;;;7.90;5.53;;;5.10;99.90;;;;;;5052702;28;20454;-73
2022/04/05 01:26:41;;;;;;;7.55;5.68;;;5.00;99.90;;;;;;5044879;28;20490;-72
2022/04/05 01:29:06;;;;;;;6.97;5.65;;;5.00;99.90;;;;;;5052544;28;20193;-72
2022/04/05 01:31:40;;;;;;;7.77;6.17;;;5.10;99.90;;;;;;5052468;28;20203;-73
2022/04/05 01:34:07;;;;;;;6.10;5.47;;;5.10;99.90;;;;;;5051012;28;20187;-73
2022/04/05 01:36:33;;;;;;;7.80;5.37;;;5.10;99.90;;;;;;5052566;28;20182;-73
2022/04/05 01:38:59;;;;;;;12.83;6.83;;;5.10;99.90;;;;;;5052561;28;20432;-73
2022/04/05 01:41:24;;;;;;;7.50;5.27;;;5.00;99.90;;;;;;5052479;28;20989;-73
2022/04/05 01:43:50;;;;;;;7.10;6.40;;;5.00;99.90;;;;;;5051049;28;20613;-72
2022/04/05 01:46:16;;;;;;;7.13;6.00;;;5.00;99.90;;;;;;5051888;28;20582;-72
2022/04/05 01:48:41;;;;;;;9.97;6.20;;;5.10;99.90;;;;;;5052193;28;20191;-73
2022/04/05 01:51:07;;;;;;;7.10;5.93;;;5.00;99.90;;;;;;5051815;28;20253;-73
2022/04/05 01:53:33;;;;;;;7.97;5.97;;;5.00;99.90;;;;;;5051823;28;20599;-73
2022/04/05 01:55:58;;;;;;;6.80;5.83;;;5.00;99.90;;;;;;5051543;28;20286;-73
2022/04/05 01:58:25;;;;;;;7.97;5.80;;;5.00;99.90;;;;;;5050648;28;20186;-73
2022/04/05 02:00:51;;;;;;;7.33;5.33;;;5.00;99.90;;;;;;5051603;28;20205;-73
2022/04/05 02:03:17;;;;;;;10.02;5.68;;;5.00;99.90;;;;;;5051528;28;20464;-73
2022/04/05 02:05:46;;;;;;;6.32;5.65;;;5.10;99.90;;;;;;5051543;28;20238;-74
2022/04/05 02:08:12;;;;;;;6.77;5.60;;;5.00;99.90;;;;;;5051820;28;20675;-74
2022/04/05 02:10:38;;;;;;;7.30;5.63;;;5.00;99.90;;;;;;5052022;28;20746;-74
2022/04/05 02:13:04;;;;;;;8.40;5.43;;;5.00;99.90;;;;;;5051682;28;20236;-72
2022/04/05 02:15:29;;;;;;;7.20;5.67;;;4.90;99.90;;;;;;5051816;28;20250;-72
2022/04/05 02:17:55;;;;;;;6.03;5.43;;;4.90;99.90;;;;;;5051786;28;20211;-72
2022/04/05 02:20:20;;;;;;;6.20;5.57;;;4.90;99.90;;;;;;5051690;28;20177;-72
2022/04/05 02:22:46;;;;;;;5.43;4.93;;;5.00;99.90;;;;;;5050728;28;20179;-72
2022/04/05 02:25:12;;;;;;;7.07;5.40;;;5.00;99.90;;;;;;5051587;28;20202;-72
2022/04/05 02:27:41;;;;;;;7.30;5.87;;;5.00;99.90;;;;;;5051724;28;20491;-72
2022/04/05 02:30:07;;;;;;;7.30;5.82;;;5.00;99.90;;;;;;5051519;28;20542;-72
2022/04/05 02:32:33;;;;;;;8.30;6.10;;;5.00;99.90;;;;;;5051457;28;20258;-72
2022/04/05 02:34:58;;;;;;;11.97;5.30;;;5.00;99.90;;;;;;5051553;28;20491;-72
2022/04/05 02:37:24;;;;;;;8.60;6.83;;;5.00;99.90;;;;;;5051339;28;20187;-72
2022/04/05 02:39:49;;;;;;;5.90;5.30;;;5.00;99.90;;;;;;5050959;28;20182;-72
2022/04/05 02:42:15;;;;;;;7.70;5.70;;;5.00;99.90;;;;;;5050841;28;20566;-72
2022/04/05 02:44:42;;;;;;;7.23;5.73;;;4.90;99.90;;;;;;5049107;28;20221;-72
2022/04/05 02:47:09;;;;;;;10.90;6.03;;;5.10;99.90;;;;;;5049399;28;20191;-72
2022/04/05 02:49:34;;;;;;;6.68;5.13;;;4.90;99.90;;;;;;5050523;28;20475;-72
2022/04/05 02:52:00;;;;;;;8.07;5.60;;;5.00;99.90;;;;;;5050371;28;20214;-74
2022/04/05 02:54:26;;;;;;;5.70;5.20;;;5.10;99.90;;;;;;5050615;28;21015;-76
2022/04/05 02:56:51;;;;;;;5.33;4.83;;;5.00;99.90;;;;;;5051151;28;20186;-74
2022/04/05 02:59:17;;;;;;;10.20;5.60;;;5.10;99.90;;;;;;5050586;28;20262;-74
2022/04/05 03:01:43;;;;;;;5.73;4.90;;;5.10;99.90;;;;;;5050911;28;20190;-74
2022/04/05 03:04:08;;;;;;;8.97;5.67;;;5.10;99.90;;;;;;5050534;28;20190;-74
2022/04/05 03:06:34;;;;;;;8.03;5.40;;;5.10;99.90;;;;;;5050886;28;20191;-74
2022/04/05 03:09:00;;;;;;;5.90;5.07;;;5.10;99.90;;;;;;5051005;28;20189;-74
2022/04/05 03:11:26;;;;;;;5.17;4.77;;;5.10;99.90;;;;;;5049235;28;20188;-74
2022/04/05 03:13:52;;;;;;;9.63;6.72;;;5.10;99.90;;;;;;5049387;28;20480;-74
2022/04/05 03:16:18;;;;;;;5.53;4.80;;;5.20;99.90;;;;;;5049139;28;20208;-74
2022/04/05 03:18:46;;;;;;;5.87;4.93;;;5.20;99.90;;;;;;5051293;28;20935;-75
2022/04/05 03:21:13;;;;;;;8.73;5.45;;;5.20;99.90;;;;;;5051009;28;20263;-73
2022/04/05 03:23:39;;;;;;;5.73;4.97;;;5.20;99.90;;;;;;5032366;28;20195;-74
2022/04/05 03:26:05;;;;;;;7.53;5.43;;;5.20;99.90;;;;;;5050370;28;20434;-73
2022/04/05 03:28:30;;;;;;;6.63;5.63;;;5.20;99.90;;;;;;5050132;28;20793;-74
2022/04/05 03:30:56;;;;;;;8.40;5.90;;;5.20;99.90;;;;;;5048558;28;20435;-75
2022/04/05 03:33:22;;;;;;;8.17;6.13;;;5.20;99.90;;;;;;5048167;28;20316;-74
2022/04/05 03:35:47;;;;;;;13.33;6.50;;;5.20;99.90;;;;;;5048486;28;20310;-73
2022/04/05 03:38:13;;;;;;;6.80;5.40;;;5.10;99.90;;;;;;5048353;28;20190;-74
2022/04/05 03:40:39;;;;;;;6.43;5.40;;;5.20;99.90;;;;;;5049801;28;20210;-74
2022/04/05 03:43:07;;;;;;;6.10;4.40;;;5.10;99.90;;;;;;5050028;28;20188;-75
2022/04/05 03:45:33;;;;;;;7.33;6.30;;;5.10;99.90;;;;;;5050301;28;21222;-74
2022/04/05 03:47:58;;;;;;;6.25;4.93;;;5.10;99.90;;;;;;5050879;28;20434;-74
2022/04/05 03:50:24;;;;;;;6.17;5.53;;;5.10;99.90;;;;;;5058692;28;20174;-73
2022/04/05 03:52:50;;;;;;;6.53;4.30;;;5.10;99.90;;;;;;5075904;28;20208;-73
2022/04/05 03:55:16;;;;;;;7.50;5.60;;;5.10;99.90;;;;;;5075886;28;20461;-74
2022/04/05 03:57:41;;;;;;;10.20;6.17;;;5.10;99.90;;;;;;5075076;28;20194;-74
2022/04/05 04:00:08;;;;;;;7.73;4.93;;;5.20;99.90;;;;;;5076118;28;20186;-74
2022/04/05 04:02:35;;;;;;;7.03;4.90;;;5.20;99.90;;;;;;5052913;28;20283;-74
2022/04/05 04:05:01;;;;;;;11.87;6.00;;;5.20;99.90;;;;;;5048132;28;20226;-75
2022/04/05 04:07:26;;;;;;;6.07;5.50;;;5.20;99.90;;;;;;5049610;28;20414;-75
2022/04/05 04:09:52;;;;;;;6.53;5.67;;;5.10;99.90;;;;;;5049312;28;20425;-74
2022/04/05 04:12:17;;;;;;;6.63;5.90;;;5.10;99.90;;;;;;5047667;28;20206;-74
2022/04/05 04:14:43;;;;;;;14.20;5.97;;;5.10;99.90;;;;;;5048901;28;20211;-74
2022/04/05 04:17:09;;;;;;;6.00;5.40;;;5.10;99.90;;;;;;5047742;28;20273;-74
2022/04/05 04:19:34;;;;;;;9.30;5.70;;;5.10;99.90;;;;;;5047747;28;20190;-74
2022/04/05 04:22:01;;;;;;;6.13;5.37;;;5.10;99.90;;;;;;5049145;28;20194;-74
2022/04/05 04:24:26;;;;;;;8.10;4.70;;;5.00;99.90;;;;;;5046132;28;20288;-74
2022/04/05 04:26:52;;;;;;;8.97;5.50;;;5.10;99.90;;;;;;5047968;28;20416;-74
2022/04/05 04:29:18;;;;;;;8.03;5.30;;;5.00;99.90;;;;;;5047633;28;20198;-74
2022/04/05 04:31:43;;;;;;;7.80;5.87;;;5.10;99.90;;;;;;5047735;28;20209;-74
2022/04/05 04:34:09;;;;;;;5.40;4.37;;;5.10;99.90;;;;;;5047904;28;20184;-74
2022/04/05 04:36:35;;;;;;;8.53;5.33;;;5.10;99.90;;;;;;5046293;28;20191;-74
2022/04/05 04:39:01;;;;;;;7.33;5.30;;;5.20;99.90;;;;;;5046118;28;20293;-74
2022/04/05 04:41:26;;;;;;;5.80;5.23;;;5.10;99.90;;;;;;5046148;28;20510;-74
2022/04/05 04:43:52;;;;;;;8.73;5.33;;;5.10;99.90;;;;;;5045968;28;20186;-73
2022/04/05 04:46:18;;;;;;;6.37;5.00;;;5.10;99.90;;;;;;5049845;28;20289;-74
2022/04/05 04:48:44;;;;;;;6.87;5.77;;;5.10;99.90;;;;;;5051249;28;20501;-74
2022/04/05 04:51:12;;;;;;;6.60;5.57;;;5.10;99.90;;;;;;5050098;28;20182;-74
2022/04/05 04:53:37;;;;;;;9.77;5.33;;;5.10;99.90;;;;;;5051379;28;20872;-74
2022/04/05 04:56:03;;;;;;;7.40;5.53;;;5.10;99.90;;;;;;5051178;28;20460;-74
2022/04/05 04:58:29;;;;;;;8.07;5.60;;;5.10;99.90;;;;;;5051265;28;20919;-74
2022/04/05 05:00:55;;;;;;;7.67;5.73;;;5.10;99.90;;;;;;5051272;28;20424;-74
2022/04/05 05:03:20;;;;;;;10.13;6.10;;;5.10;99.90;;;;;;5051173;28;20256;-74
2022/04/05 05:05:46;;;;;;;6.20;5.60;;;5.10;99.90;;;;;;5051047;28;20950;-74
2022/04/05 05:08:11;;;;;;;6.50;4.93;;;5.10;99.90;;;;;;5051096;28;20183;-74
2022/04/05 05:10:37;;;;;;;5.53;4.93;;;5.10;99.90;;;;;;5050976;28;20183;-73
2022/04/05 05:13:03;;;;;;;6.80;5.20;;;5.10;99.90;;;;;;5032796;28;20254;-74
2022/04/05 05:15:29;;;;;;;12.37;5.50;;;5.10;99.90;;;;;;5051199;28;20245;-74
2022/04/05 05:17:55;;;;;;;5.03;4.40;;;5.10;99.90;;;;;;5049341;28;20429;-74
2022/04/05 05:20:22;;;;;;;9.93;5.30;;;5.20;99.90;;;;;;5050848;28;20190;-74
2022/04/05 05:22:48;;;;;;;8.97;5.53;;;5.20;99.90;;;;;;5049420;28;20432;-73
2022/04/05 05:25:14;;;;;;;5.43;4.93;;;5.20;99.90;;;;;;5050980;28;20445;-74
2022/04/05 05:27:39;;;;;;;9.63;4.97;;;5.20;99.90;;;;;;5051159;28;20450;-73
2022/04/05 05:30:07;;;;;;;6.73;4.67;;;5.20;99.90;;;;;;5049682;28;20183;-74
2022/04/05 05:32:41;;;;;;;6.60;5.07;;;5.20;99.90;;;;;;5050927;28;20409;-73
2022/04/05 05:35:07;;;;;;;5.70;4.63;;;5.20;99.90;;;;;;5051068;28;20537;-74
2022/04/05 05:37:33;;;;;;;5.73;5.10;;;5.30;99.90;;;;;;5049256;28;20434;-74
2022/04/05 05:39:59;;;;;;;4.83;4.00;;;5.30;99.90;;;;;;5050919;28;20417;-73
2022/04/05 05:42:24;;;;;;;5.83;4.70;;;5.30;99.90;;;;;;5051051;28;20190;-74
2022/04/05 05:44:50;;;;;;;5.83;4.60;;;5.30;99.90;;;;;;5050742;28;20256;-73
2022/04/05 05:47:15;;;;;;;6.13;5.00;;;5.30;99.90;;;;;;5049961;28;20241;-71
2022/04/05 05:49:41;;;;;;;10.40;4.80;;;5.30;99.90;;;;;;5049553;28;20196;-73
2022/04/05 05:52:07;;;;;;;8.07;4.97;;;5.30;99.90;;;;;;5050534;28;20283;-73
2022/04/05 05:54:32;;;;;;;6.80;4.80;;;5.30;99.90;;;;;;5050544;28;20237;-73
2022/04/05 05:56:58;;;;;;;6.00;4.80;;;5.40;99.90;;;;;;5050460;28;20415;-74
2022/04/05 05:59:26;;;;;;;5.37;4.60;;;5.40;99.90;;;;;;5049276;28;20206;-73
2022/04/05 06:01:51;;;;;;;7.73;4.03;;;5.40;99.90;;;;;;5049135;28;20182;-74
2022/04/05 06:04:17;;;;;;;5.17;4.30;;;5.40;99.90;;;;;;5050194;28;20522;-74
2022/04/05 06:06:43;;;;;;;5.90;4.87;;;5.50;99.90;;;;;;5050318;28;20565;-73
2022/04/05 06:09:09;;;;;;;5.17;3.67;;;5.50;99.90;;;;;;5050479;28;20201;-73
2022/04/05 06:11:34;;;;;;;6.67;4.27;;;5.50;99.90;;;;;;5050317;28;20552;-73
2022/04/05 06:14:00;;;;;;;4.60;4.20;;;5.50;99.90;;;;;;5048721;28;20180;-73
2022/04/05 06:16:26;;;;;;;7.30;4.93;;;5.50;99.90;;;;;;5048477;28;20263;-73
2022/04/05 06:18:51;;;;;;;7.10;4.93;;;5.50;99.90;;;;;;5050527;28;20683;-73
2022/04/05 06:21:19;;;;;;;7.53;4.87;;;5.60;99.90;;;;;;5049840;28;20184;-73
2022/04/05 06:23:45;;;;;;;4.63;4.10;;;5.60;99.90;;;;;;5049802;28;20425;-73
2022/04/05 06:26:11;;;;;;;5.77;4.50;;;5.50;99.90;;;;;;5049461;28;20445;-73
2022/04/05 06:28:37;;;;;;;30.93;22.60;;;5.60;99.90;;;;;;5049623;28;20184;-73
2022/04/05 06:31:03;;;;;;;7.63;5.40;;;5.60;99.90;;;;;;5049355;28;20417;-73
2022/04/05 06:33:29;;;;;;;6.23;4.57;;;5.60;99.90;;;;;;5048199;28;20468;-73
2022/04/05 06:35:59;;;;;;;5.87;4.30;;;5.60;99.90;;;;;;5049269;28;20269;-73
2022/04/05 06:38:27;;;;;;;7.60;3.73;;;5.70;99.90;;;;;;5049844;28;20195;-72
2022/04/05 06:40:54;;;;;;;8.53;5.20;;;5.70;99.90;;;;;;5049786;28;20815;-71
2022/04/05 06:43:23;;;;;;;7.30;4.30;;;5.80;99.90;;;;;;5049651;28;20416;-73
2022/04/05 06:45:49;;;;;;;6.97;4.47;;;5.80;99.90;;;;;;5049576;28;20505;-73
2022/04/05 06:48:15;;;;;;;4.43;4.03;;;5.80;99.90;;;;;;5049459;28;20413;-73
2022/04/05 06:50:41;;;;;;;5.47;3.60;;;5.90;99.90;;;;;;5048988;28;20449;-73
2022/04/05 06:53:08;;;;;;;5.20;4.67;;;5.90;99.90;;;;;;5049062;28;20199;-73
2022/04/05 06:55:34;;;;;;;4.40;4.00;;;6.00;99.90;;;;;;5048739;28;20444;-73
2022/04/05 06:58:00;;;;;;;4.73;4.30;;;6.00;99.90;;;;;;5048837;28;20436;-73
2022/04/05 07:00:27;;;;;;;4.23;3.30;;;6.00;99.90;;;;;;5048872;28;20971;-73
2022/04/05 07:02:54;;;;;;;4.87;3.40;;;6.00;99.90;;;;;;5048729;28;20191;-73
2022/04/05 07:05:21;;;;;;;5.23;4.00;;;6.00;99.90;;;;;;5048695;28;20463;-73
2022/04/05 07:07:47;;;;;;;4.53;4.10;;;6.00;99.90;;;;;;5048472;28;20421;-73
2022/04/05 07:10:18;;;;;;;6.47;3.73;;;6.00;99.90;;;;;;5048923;28;20414;-73
2022/04/05 07:12:45;;;;;;;5.43;3.43;;;6.00;99.90;;;;;;5048666;28;20524;-73
2022/04/05 07:15:11;;;;;;;4.50;3.10;;;6.10;99.90;;;;;;5048496;28;20449;-73
2022/04/05 07:17:38;;;;;;;5.13;3.87;;;6.10;99.90;;;;;;5048436;28;20497;-73
2022/04/05 07:20:08;;;;;;;4.17;3.60;;;6.10;99.90;;;;;;5048603;28;20488;-73
2022/04/05 07:22:34;;;;;;;3.53;3.23;;;6.20;99.90;;;;;;5047498;28;20415;-73
2022/04/05 07:25:00;;;;;;;4.30;3.80;;;6.20;99.90;;;;;;5047123;28;20564;-73
2022/04/05 07:27:26;;;;;;;4.63;3.80;;;6.20;99.90;;;;;;5048956;28;20540;-73
2022/04/05 07:29:51;;;;;;;4.30;3.90;;;6.20;99.90;;;;;;5047054;28;20418;-73
2022/04/05 07:32:17;;;;;;;4.83;3.73;;;6.20;99.90;;;;;;5048377;28;20249;-73
2022/04/05 07:34:43;;;;;;;3.83;3.23;;;6.30;99.90;;;;;;5048165;28;20234;-73
2022/04/05 07:37:11;;;;;;;3.67;3.37;;;6.30;99.90;;;;;;5048229;28;20647;-73
2022/04/05 07:39:38;;;;;;;3.57;3.20;;;6.30;99.90;;;;;;5048018;28;20186;-73
2022/04/05 07:42:04;;;;;;;8.43;4.10;;;6.40;99.90;;;;;;5048024;28;20422;-74
2022/04/05 07:44:29;;;;;;;5.97;3.73;;;6.40;99.90;;;;;;5048129;28;20450;-73
2022/04/05 07:46:55;;;;;;;6.73;3.60;;;6.40;99.90;;;;;;5046714;28;20918;-73
2022/04/05 07:49:21;;;;;;;4.80;3.67;;;6.40;99.90;;;;;;5047826;28;20191;-72
2022/04/05 07:51:47;;;;;;;4.37;3.30;;;6.50;99.90;;;;;;5048208;28;20627;-71
2022/04/05 07:54:13;;;;;;;6.57;4.20;;;6.50;99.90;;;;;;5046425;28;20418;-73
2022/04/05 07:56:38;;;;;;;5.33;3.40;;;6.50;99.90;;;;;;5048459;28;20234;-73
2022/04/05 07:59:04;;;;;;;4.00;3.60;;;6.50;99.90;;;;;;5048057;28;20188;-73
2022/04/05 08:01:30;;;;;;;3.77;3.47;;;6.50;99.90;;;;;;5048454;28;20183;-73
2022/04/05 08:03:56;;;;;;;3.93;3.47;;;6.60;99.90;;;;;;5048179;28;20422;-73
2022/04/05 08:06:24;;;;;;;9.57;3.70;;;6.60;99.90;;;;;;5048086;28;20215;-73
2022/04/05 08:08:50;;;;;;;4.93;4.03;;;6.60;99.90;;;;;;5059594;28;20808;-71
2022/04/05 08:11:16;;;;;;;8.87;4.90;;;6.60;99.90;;;;;;5055093;28;20517;-73
2022/04/05 08:13:42;;;;;;;6.60;4.67;;;6.60;99.90;;;;;;5047452;28;20489;-73
2022/04/05 08:16:07;;;;;;;7.33;4.30;;;6.60;99.90;;;;;;5047652;28;20439;-73
2022/04/05 08:18:33;;;;;;;4.93;4.00;;;6.70;99.90;;;;;;5047455;28;20183;-73
2022/04/05 08:20:59;;;;;;;5.67;4.70;;;6.70;99.90;;;;;;5046901;28;20257;-73
2022/04/05 08:23:24;;;;;;;4.80;4.20;;;6.70;99.90;;;;;;5047602;28;20186;-73
2022/04/05 08:25:50;;;;;;;5.63;4.10;;;6.70;99.90;;;;;;5047409;28;20207;-73
2022/04/05 08:28:16;;;;;;;5.90;4.43;;;6.70;99.90;;;;;;5045717;28;20728;-73
2022/04/05 08:30:41;;;;;;;4.50;3.83;;;6.80;99.90;;;;;;5047371;28;20723;-73
2022/04/05 08:33:07;;;;;;;5.30;3.80;;;6.80;99.90;;;;;;5048992;28;20242;-73
2022/04/05 08:35:33;;;;;;;5.70;4.10;;;6.90;99.90;;;;;;5047818;28;20262;-73
2022/04/05 08:37:59;;;;;;;5.50;4.57;;;6.90;99.90;;;;;;5047146;28;20172;-73
2022/04/05 08:40:26;;;;;;;5.57;4.07;;;6.90;99.90;;;;;;5047336;28;20188;-73
2022/04/05 08:42:54;;;;;;;6.30;3.97;;;6.90;99.90;;;;;;5047215;28;20837;-72
2022/04/05 08:45:22;;;;;;;7.40;3.93;;;7.00;99.90;;;;;;5047324;28;20434;-73
2022/04/05 08:47:52;;;;;;;4.60;3.33;;;7.00;99.90;;;;;;5047090;28;20414;-74
2022/04/05 08:50:21;;;;;;;10.00;4.97;;;7.00;99.90;;;;;;5047392;28;20525;-74
2022/04/05 08:52:47;;;;;;;4.87;3.60;;;7.10;99.90;;;;;;5045986;28;20892;-73
2022/04/05 08:55:14;;;;;;;7.00;3.83;;;7.10;99.90;;;;;;5046956;28;20442;-74
2022/04/05 08:57:40;;;;;;;5.70;3.60;;;7.10;99.90;;;;;;5047124;28;20415;-73
2022/04/05 09:00:09;;;;;;;5.50;3.93;;;7.20;99.90;;;;;;5047139;28;20446;-74
2022/04/05 09:02:35;;;;;;;7.50;5.13;;;7.20;99.90;;;;;;5046865;28;20460;-73
2022/04/05 09:05:01;;;;;;;4.53;3.50;;;7.20;99.90;;;;;;5046809;28;20473;-74
2022/04/05 09:07:32;;;;;;;7.00;4.43;;;7.20;99.90;;;;;;5047120;28;21036;-74
2022/04/05 09:10:24;;;;;;;5.30;4.00;;;7.30;99.90;;;;;;5046895;28;20468;-74
2022/04/05 09:12:51;;;;;;;4.93;4.10;;;7.20;99.90;;;;;;5045766;28;20472;-74
2022/04/05 09:15:16;;;;;;;5.87;3.77;;;7.20;99.90;;;;;;5046941;28;20442;-74
2022/04/05 09:17:45;;;;;;;8.13;4.47;;;7.20;99.90;;;;;;5045388;28;20438;-74
2022/04/05 09:20:12;;;;;;;10.33;4.13;;;7.30;99.90;;;;;;5046982;28;20196;-74
2022/04/05 09:22:39;;;;;;;5.53;4.17;;;7.30;99.90;;;;;;5047299;28;20422;-74
2022/04/05 09:25:10;;;;;;;4.23;3.90;;;7.40;99.90;;;;;;5046804;28;20449;-73
2022/04/05 09:27:53;;;;;;;4.80;3.83;;;7.40;99.90;;;;;;5046975;28;20427;-73
2022/04/05 09:30:21;;;;;;;12.20;5.00;;;7.40;99.90;;;;;;5047000;28;20488;-72
2022/04/05 09:32:48;;;;;;;4.97;4.03;;;7.40;99.90;;;;;;5048803;28;20820;-72
2022/04/05 09:35:19;;;;;;;5.50;4.23;;;7.40;99.90;;;;;;5049351;28;20455;-74
2022/04/05 09:37:45;;;;;;;6.50;4.57;;;7.40;99.90;;;;;;5050867;28;20422;-73
2022/04/05 09:40:32;;;;;;;4.87;3.87;;;7.30;99.90;;;;;;5050921;28;20418;-73
2022/04/05 09:43:15;;;;;;;7.87;4.10;;;7.50;99.90;;;;;;5051020;28;20426;-73
2022/04/05 09:45:52;;;;;;;4.70;4.20;;;7.50;99.90;;;;;;5050707;28;20438;-73
2022/04/05 09:48:22;;;;;;;8.50;3.30;;;7.40;99.90;;;;;;5050775;28;20513;-74
2022/04/05 09:51:03;;;;;;;6.97;4.37;;;7.60;99.90;;;;;;5049435;28;20484;-74
2022/04/05 09:53:40;;;;;;;6.20;4.07;;;7.50;99.90;;;;;;5050370;28;20469;-73
2022/04/05 09:56:25;;;;;;;7.23;4.13;;;7.50;99.90;;;;;;5050011;28;20444;-73
2022/04/05 09:58:55;;;;;;;7.20;3.90;;;7.60;99.90;;;;;;5049087;28;20433;-73
2022/04/05 10:01:23;;;;;;;8.10;4.80;;;7.60;99.90;;;;;;5050780;28;20418;-73
2022/04/05 10:03:59;;;;;;;4.37;3.97;;;7.60;99.90;;;;;;5050779;28;20430;-73
2022/04/05 10:06:26;;;;;;;5.83;3.93;;;7.60;99.90;;;;;;5050744;28;20493;-73
2022/04/05 10:08:53;;;;;;;6.30;4.77;;;7.60;99.90;;;;;;5050844;28;21069;-73
2022/04/05 10:11:20;;;;;;;6.00;4.50;;;7.60;99.90;;;;;;5050597;28;20873;-73
2022/04/05 10:13:45;;;;;;;6.53;3.97;;;7.70;99.90;;;;;;5050274;28;20466;-73
2022/04/05 10:16:12;;;;;;;5.13;3.43;;;7.70;99.90;;;;;;5049911;28;20500;-73
2022/04/05 10:18:38;;;;;;;4.47;3.77;;;7.80;99.90;;;;;;5050456;28;20186;-73
2022/04/05 10:21:04;;;;;;;5.67;4.07;;;7.90;99.90;;;;;;5050525;28;20422;-72
2022/04/05 10:23:31;;;;;;;22.33;4.00;;;7.90;99.90;;;;;;5050367;28;20184;-73
2022/04/05 10:25:59;;;;;;;5.50;4.47;;;7.90;99.90;;;;;;5049647;28;20442;-74
2022/04/05 10:28:28;;;;;;;4.93;3.70;;;8.00;99.90;;;;;;5049710;28;20426;-74
2022/04/05 10:31:10;;;;;;;3.90;3.30;;;8.00;99.90;;;;;;5049552;28;20509;-73
2022/04/05 10:34:14;;;;;;;6.83;3.93;;;8.10;99.90;;;;;;5048018;28;20477;-73
2022/04/05 10:36:51;;;;;;;7.10;4.10;;;8.20;99.90;;;;;;4987505;28;20421;-74
2022/04/05 10:39:18;;;;;;;9.33;4.20;;;8.20;99.90;;;;;;4987689;28;20441;-74
2022/04/05 10:42:04;;;;;;;5.40;4.27;;;8.20;99.90;;;;;;4995608;28;20427;-72
2022/04/05 10:44:30;;;;;;;4.47;3.87;;;8.20;99.90;;;;;;5048219;28;21042;-73
2022/04/05 10:46:59;;;;;;;6.70;4.43;;;8.20;99.90;;;;;;5049102;28;20426;-73
2022/04/05 10:49:35;;;;;;;4.90;4.30;;;8.30;99.90;;;;;;5049272;28;20267;-74
2022/04/05 10:52:23;;;;;;;7.43;4.73;;;8.40;99.90;;;;;;5048902;28;20476;-73
2022/04/05 10:54:50;;;;;;;5.07;4.07;;;8.50;99.90;;;;;;5048892;28;20889;-73
2022/04/05 10:57:36;;;;;;;4.90;4.23;;;8.50;99.90;;;;;;5047205;28;20455;-72
2022/04/05 11:00:21;;;;;;;3.63;3.30;;;8.60;99.90;;;;;;5049128;28;20433;-72
2022/04/05 11:03:02;;;;;;;5.70;4.40;;;8.70;99.90;;;;;;5047510;28;20431;-72
2022/04/05 11:05:36;;;;;;;7.33;4.10;;;8.80;99.90;;;;;;5048768;28;20546;-72
2022/04/05 11:08:10;;;;;;;6.87;4.10;;;8.70;99.90;;;;;;5047494;28;20476;-72
2022/04/05 11:10:36;;;;;;;6.93;3.73;;;8.80;99.90;;;;;;5048648;28;20458;-72
2022/04/05 11:13:07;;;;;;;5.03;4.47;;;8.60;99.90;;;;;;5048771;28;20497;-72
2022/04/05 11:15:54;;;;;;;5.23;3.77;;;8.80;99.90;;;;;;5048762;28;20204;-73
2022/04/05 11:18:22;;;;;;;5.40;3.83;;;8.80;99.90;;;;;;5048234;28;20521;-74
2022/04/05 11:20:51;;;;;;;5.37;4.17;;;8.90;99.90;;;;;;5048649;28;20521;-74
2022/04/05 11:23:18;;;;;;;4.93;3.87;;;8.80;99.90;;;;;;5048763;28;20426;-74
2022/04/05 11:25:45;;;;;;;7.10;3.80;;;8.80;99.90;;;;;;5048492;28;20476;-71
2022/04/05 11:28:19;;;;;;;9.87;4.20;;;8.70;99.90;;;;;;5048365;28;20427;-73
2022/04/05 11:30:47;;;;;;;7.27;4.40;;;8.80;99.90;;;;;;5046759;28;20418;-74
2022/04/05 11:33:17;;;;;;;5.80;4.03;;;8.80;99.90;;;;;;5046727;28;20476;-73
2022/04/05 11:35:50;;;;;;;4.90;4.50;;;8.80;99.90;;;;;;5048070;28;20961;-74
2022/04/05 11:38:19;;;;;;;4.20;3.80;;;8.80;99.90;;;;;;5047970;28;20411;-74
2022/04/05 11:40:52;;;;;;;6.30;4.10;;;8.70;99.90;;;;;;5046234;28;20418;-74
2022/04/05 11:43:43;;;;;;;5.33;4.13;;;8.80;99.90;;;;;;5047964;28;20536;-74
2022/04/05 11:46:13;;;;;;;4.97;4.23;;;8.80;99.90;;;;;;5046397;28;20508;-74
2022/04/05 11:48:43;;;;;;;8.20;4.33;;;8.70;99.90;;;;;;5046419;28;20964;-74
2022/04/05 11:51:12;;;;;;;5.70;4.07;;;8.70;99.90;;;;;;5048001;28;20420;-75
2022/04/05 11:53:38;;;;;;;8.60;3.47;;;8.70;99.90;;;;;;5047794;28;20470;-73
2022/04/05 11:56:10;;;;;;;6.03;4.87;;;8.60;99.90;;;;;;5047898;28;20438;-74
2022/04/05 11:58:42;;;;;;;8.70;4.27;;;8.60;99.90;;;;;;5047977;28;20418;-74
2022/04/05 12:01:10;;;;;;;5.80;3.77;;;8.50;99.90;;;;;;5046899;28;20426;-74
2022/04/05 12:03:44;;;;;;;5.90;3.57;;;8.60;99.90;;;;;;5049310;28;21050;-74
2022/04/05 12:06:09;;;;;;;4.90;3.90;;;8.60;99.90;;;;;;5048977;28;20591;-74
2022/04/05 12:08:35;;;;;;;6.40;3.70;;;8.60;99.90;;;;;;5048875;28;20923;-74
2022/04/05 12:11:01;;;;;;;5.30;3.40;;;8.70;99.90;;;;;;5048188;28;20232;-73
2022/04/05 12:13:34;;;;;;;3.53;3.23;;;8.60;99.90;;;;;;5048019;28;20826;-73
2022/04/05 12:16:02;;;;;;;4.60;4.00;;;8.50;99.90;;;;;;5048406;28;20208;-73
2022/04/05 12:18:28;;;;;;;4.40;3.10;;;8.50;99.90;;;;;;5048079;28;20487;-73
2022/04/05 12:20:58;;;;;;;4.87;3.57;;;8.50;99.90;;;;;;5048106;28;20419;-73
2022/04/05 12:23:29;;;;;;;5.30;4.13;;;8.50;99.90;;;;;;5046479;28;20437;-73
2022/04/05 12:26:24;;;;;;;5.90;4.13;;;8.60;99.90;;;;;;5047648;28;20442;-73
2022/04/05 12:28:51;;;;;;;6.00;3.93;;;8.60;99.90;;;;;;5044076;28;20465;-74
2022/04/05 12:31:22;;;;;;;7.60;3.43;;;8.60;99.90;;;;;;5047732;28;20414;-73
2022/04/05 12:34:11;;;;;;;4.13;3.37;;;8.60;99.90;;;;;;5047436;28;20477;-73
2022/04/05 12:36:41;;;;;;;3.70;3.37;;;8.60;99.90;;;;;;5047614;28;20433;-74
2022/04/05 12:39:18;;;;;;;9.77;3.80;;;8.60;99.90;;;;;;5045625;28;20419;-74
2022/04/05 12:41:44;;;;;;;5.77;3.40;;;8.60;99.90;;;;;;5047594;28;20894;-74
2022/04/05 12:44:15;;;;;;;5.10;3.47;;;8.60;99.90;;;;;;5045847;28;20995;-74
2022/04/05 12:46:42;;;;;;;3.70;3.00;;;8.60;99.90;;;;;;5047495;28;20428;-73
2022/04/05 12:49:16;;;;;;;3.97;3.23;;;8.60;99.90;;;;;;5047618;28;20422;-74
2022/04/05 12:51:42;;;;;;;6.23;4.37;;;8.60;99.90;;;;;;5047333;28;20827;-75
2022/04/05 12:54:31;;;;;;;4.13;3.57;;;8.60;99.90;;;;;;5047304;28;20929;-74
2022/04/05 12:57:13;;;;;;;2.97;2.60;;;8.60;99.90;;;;;;5047792;28;20421;-74
2022/04/05 12:59:38;;;;;;;3.30;3.00;;;8.70;99.90;;;;;;5047598;28;20410;-74